createdAt,value
2022-11-27T00:01:13.989Z,102468.94
2022-11-27T00:03:41.327Z,102470.81
2022-11-27T00:06:11.803Z,102457.94
2022-11-27T00:08:38.396Z,102463.28
2022-11-27T00:11:13.641Z,102462.41
2022-11-27T00:13:41.540Z,102454.75
2022-11-27T00:16:08.943Z,102463.16
2022-11-27T00:18:36.098Z,102451.94
2022-11-27T00:21:05.265Z,102439.59
2022-11-27T00:23:32.470Z,102429.53
2022-11-27T00:25:59.584Z,102417.13
2022-11-27T00:28:26.564Z,102432.97
2022-11-27T00:30:53.668Z,102441.63
2022-11-27T00:33:20.158Z,102431.13
2022-11-27T00:35:46.877Z,102432.97
2022-11-27T00:38:13.404Z,102432.44
2022-11-27T00:40:39.945Z,102417.84
2022-11-27T00:43:06.443Z,102428.66
2022-11-27T00:45:33.476Z,102426.91
2022-11-27T00:48:00.040Z,102426.16
2022-11-27T00:50:26.583Z,102426.25
2022-11-27T00:52:53.148Z,102429.44
2022-11-27T00:55:20.214Z,102423.22
2022-11-27T00:57:47.782Z,102427.63
2022-11-27T01:00:15.078Z,102424.72
2022-11-27T01:02:42.240Z,102428.56
2022-11-27T01:05:09.020Z,102413.84
2022-11-27T01:07:35.639Z,102417.53
2022-11-27T01:10:02.333Z,102414.25
2022-11-27T01:12:28.861Z,102416.75
2022-11-27T01:14:55.489Z,102408.25
2022-11-27T01:17:22.212Z,102394.44
2022-11-27T01:19:49.216Z,102391.31
2022-11-27T01:22:15.791Z,102389.78
2022-11-27T01:24:44.766Z,102389.38
2022-11-27T01:27:11.952Z,102379.22
2022-11-27T01:29:38.512Z,102381.31
2022-11-27T01:32:05.680Z,102382.91
2022-11-27T01:34:32.697Z,102357.53
2022-11-27T01:36:59.262Z,102361.75
2022-11-27T01:39:26.337Z,102342.16
2022-11-27T01:41:52.876Z,102336.00
2022-11-27T01:44:25.980Z,102344.00
2022-11-27T01:46:52.989Z,102331.84
2022-11-27T01:49:26.033Z,102331.03
2022-11-27T01:51:58.428Z,102322.97
2022-11-27T01:54:29.519Z,102327.06
2022-11-27T01:56:59.858Z,102329.31
2022-11-27T01:59:27.017Z,102326.91
2022-11-27T02:01:53.773Z,102323.31
2022-11-27T02:04:20.401Z,102314.69
2022-11-27T02:06:47.081Z,102312.78
2022-11-27T02:09:14.194Z,102311.19
2022-11-27T02:11:55.921Z,102308.78
2022-11-27T02:14:44.990Z,102302.69
2022-11-27T02:17:23.560Z,102301.91
2022-11-27T02:20:15.210Z,102298.44
2022-11-27T02:23:12.398Z,102294.88
2022-11-27T02:25:48.491Z,102291.41
2022-11-27T02:28:30.009Z,102296.47
2022-11-27T02:31:25.734Z,102303.28
2022-11-27T02:33:56.350Z,102306.47
2022-11-27T02:36:30.138Z,102301.50
2022-11-27T02:39:04.535Z,102305.03
2022-11-27T02:41:41.762Z,102311.66
2022-11-27T02:44:10.619Z,102315.97
2022-11-27T02:46:38.539Z,102309.75
2022-11-27T02:49:11.370Z,102306.53
2022-11-27T02:51:59.166Z,102314.53
2022-11-27T02:54:30.522Z,102300.84
2022-11-27T02:57:00.705Z,102314.28
2022-11-27T02:59:31.106Z,102292.88
2022-11-27T03:02:05.623Z,102282.63
2022-11-27T03:04:37.755Z,102286.88
2022-11-27T03:07:14.715Z,102290.16
2022-11-27T03:09:48.396Z,102278.34
2022-11-27T03:12:17.752Z,102279.13
2022-11-27T03:14:46.509Z,102287.84
2022-11-27T03:17:22.684Z,102287.41
2022-11-27T03:19:57.144Z,102282.13
2022-11-27T03:22:24.082Z,102276.78
2022-11-27T03:24:51.176Z,102265.53
2022-11-27T03:27:30.051Z,102275.53
2022-11-27T03:30:02.403Z,102278.38
2022-11-27T03:32:31.591Z,102267.88
2022-11-27T03:34:58.393Z,102267.78
2022-11-27T03:37:25.428Z,102265.94
2022-11-27T03:39:52.044Z,102267.69
2022-11-27T03:42:36.874Z,102254.97
2022-11-27T03:45:09.121Z,102255.06
2022-11-27T03:48:00.042Z,102258.59
2022-11-27T03:50:35.796Z,102251.84
2022-11-27T03:53:30.272Z,102246.81
2022-11-27T03:56:08.384Z,102236.47
2022-11-27T03:58:41.063Z,102245.94
2022-11-27T04:01:12.958Z,102246.66
2022-11-27T04:03:39.699Z,102246.66
2022-11-27T04:06:06.446Z,102251.84
2022-11-27T04:08:33.029Z,102237.16
2022-11-27T04:10:59.571Z,102243.47
2022-11-27T04:13:26.065Z,102256.41
2022-11-27T04:15:52.629Z,102242.72
2022-11-27T04:18:19.291Z,102248.81
2022-11-27T04:20:45.873Z,102260.56
2022-11-27T04:23:12.367Z,102246.03
2022-11-27T04:25:39.364Z,102251.28
2022-11-27T04:28:05.876Z,102249.28
2022-11-27T04:30:32.432Z,102236.66
2022-11-27T04:32:59.054Z,102236.66
2022-11-27T04:35:25.624Z,102219.75
2022-11-27T04:37:52.285Z,102223.03
2022-11-27T04:40:19.753Z,102218.75
2022-11-27T04:42:46.765Z,102213.75
2022-11-27T04:45:14.394Z,102217.94
2022-11-27T04:47:41.495Z,102212.97
2022-11-27T04:50:08.975Z,102209.38
2022-11-27T04:52:35.500Z,102214.63
2022-11-27T04:55:02.149Z,102203.47
2022-11-27T04:57:28.677Z,102210.25
2022-11-27T04:59:55.290Z,102195.94
2022-11-27T05:02:22.142Z,102203.97
2022-11-27T05:04:49.192Z,102199.53
2022-11-27T05:07:15.845Z,102187.00
2022-11-27T05:09:42.385Z,102205.78
2022-11-27T05:12:09.258Z,102185.09
2022-11-27T05:14:35.817Z,102191.56
2022-11-27T05:17:02.986Z,102190.28
2022-11-27T05:19:31.555Z,102200.75
2022-11-27T05:21:58.596Z,102181.88
2022-11-27T05:24:27.220Z,102187.09
2022-11-27T05:26:54.162Z,102188.78
2022-11-27T05:29:22.039Z,102186.13
2022-11-27T05:31:48.718Z,102186.22
2022-11-27T05:34:16.019Z,102184.59
2022-11-27T05:36:43.167Z,102181.81
2022-11-27T05:39:10.685Z,102178.97
2022-11-27T05:41:39.383Z,102167.56
2022-11-27T05:44:06.738Z,102168.44
2022-11-27T05:46:33.578Z,102169.16
2022-11-27T05:49:00.476Z,102166.53
2022-11-27T05:51:27.023Z,102164.06
2022-11-27T05:53:53.796Z,102170.91
2022-11-27T05:56:20.367Z,102158.72
2022-11-27T05:58:48.865Z,102155.56
2022-11-27T06:01:17.333Z,102156.25
2022-11-27T06:03:44.459Z,102145.47
2022-11-27T06:06:15.971Z,102156.72
2022-11-27T06:08:43.461Z,102150.66
2022-11-27T06:11:12.789Z,102161.06
2022-11-27T06:13:39.956Z,102151.56
2022-11-27T06:16:12.984Z,102147.09
2022-11-27T06:18:39.837Z,102149.88
2022-11-27T06:21:11.604Z,102154.97
2022-11-27T06:23:38.682Z,102153.47
2022-11-27T06:26:15.935Z,102154.03
2022-11-27T06:28:43.337Z,102143.66
2022-11-27T06:31:17.473Z,102149.56
2022-11-27T06:33:44.498Z,102136.84
2022-11-27T06:36:11.029Z,102132.38
2022-11-27T06:38:39.117Z,102128.22
2022-11-27T06:41:09.325Z,102133.34
2022-11-27T06:43:36.584Z,102123.75
2022-11-27T06:46:06.883Z,102122.03
2022-11-27T06:48:34.500Z,102133.41
2022-11-27T06:51:06.086Z,102130.78
2022-11-27T06:53:35.861Z,102118.84
2022-11-27T06:56:04.674Z,102119.03
2022-11-27T06:58:31.723Z,102115.00
2022-11-27T07:01:04.898Z,102122.69
2022-11-27T07:03:31.426Z,102112.34
2022-11-27T07:06:04.912Z,102108.34
2022-11-27T07:08:32.021Z,102096.00
2022-11-27T07:11:24.151Z,102090.06
2022-11-27T07:13:51.589Z,102084.13
2022-11-27T07:16:18.881Z,102079.91
2022-11-27T07:18:51.005Z,102080.72
2022-11-27T07:21:17.919Z,102084.13
2022-11-27T07:23:45.478Z,102095.19
2022-11-27T07:26:18.019Z,102088.25
2022-11-27T07:28:44.741Z,102073.47
2022-11-27T07:31:13.538Z,102081.13
2022-11-27T07:33:40.151Z,102070.25
2022-11-27T07:36:18.767Z,102055.44
2022-11-27T07:38:46.409Z,102059.25
2022-11-27T07:41:13.500Z,102048.78
2022-11-27T07:43:41.362Z,102058.13
2022-11-27T07:46:15.107Z,102064.94
2022-11-27T07:48:41.929Z,102065.75
2022-11-27T07:51:10.278Z,102074.28
2022-11-27T07:53:38.465Z,102071.66
2022-11-27T07:56:06.705Z,102071.66
2022-11-27T07:58:33.511Z,102069.09
2022-11-27T08:01:00.639Z,102065.56
2022-11-27T08:03:27.732Z,102067.19
2022-11-27T08:05:54.206Z,102064.94
2022-11-27T08:08:20.742Z,102064.94
2022-11-27T08:10:47.397Z,102054.78
2022-11-27T08:13:13.879Z,102055.72
2022-11-27T08:15:40.448Z,102054.13
2022-11-27T08:18:06.952Z,102044.69
2022-11-27T08:20:33.581Z,102038.59
2022-11-27T08:23:03.086Z,102041.34
2022-11-27T08:25:29.998Z,102030.06
2022-11-27T08:27:58.768Z,102031.22
2022-11-27T08:30:25.992Z,102034.53
2022-11-27T08:32:52.567Z,102038.03
2022-11-27T08:35:19.090Z,102043.19
2022-11-27T08:37:45.833Z,102040.00
2022-11-27T08:40:12.439Z,102033.34
2022-11-27T08:42:38.957Z,102032.25
2022-11-27T08:45:05.814Z,102040.19
2022-11-27T08:47:32.583Z,102039.41
2022-11-27T08:49:59.093Z,102043.59
2022-11-27T08:52:26.454Z,102042.97
2022-11-27T08:54:57.528Z,102047.31
2022-11-27T08:57:24.612Z,102045.53
2022-11-27T08:59:51.129Z,102044.75
2022-11-27T09:02:17.700Z,102050.84
2022-11-27T09:04:44.761Z,102048.47
2022-11-27T09:07:14.287Z,102056.22
2022-11-27T09:09:40.994Z,102042.53
2022-11-27T09:12:07.841Z,102044.13
2022-11-27T09:14:34.412Z,102057.00
2022-11-27T09:17:01.032Z,102052.75
2022-11-27T09:19:27.661Z,102048.66
2022-11-27T09:21:54.221Z,102036.66
2022-11-27T09:24:20.829Z,102037.78
2022-11-27T09:26:47.455Z,102030.22
2022-11-27T09:29:14.046Z,102028.63
2022-11-27T09:31:40.632Z,102028.75
2022-11-27T09:34:07.777Z,102018.56
2022-11-27T09:36:34.382Z,102022.22
2022-11-27T09:39:00.897Z,102014.69
2022-11-27T09:41:43.380Z,102013.94
2022-11-27T09:44:27.471Z,102013.19
2022-11-27T09:46:54.546Z,102009.09
2022-11-27T09:49:24.480Z,101999.72
2022-11-27T09:52:21.035Z,102008.34
2022-11-27T09:55:02.089Z,102005.63
2022-11-27T09:57:36.129Z,101997.25
2022-11-27T10:00:07.122Z,101990.44
2022-11-27T10:02:35.393Z,101987.13
2022-11-27T10:05:15.189Z,101993.38
2022-11-27T10:07:49.449Z,101991.56
2022-11-27T10:10:21.976Z,101997.63
2022-11-27T10:13:01.087Z,101989.22
2022-11-27T10:15:48.453Z,101992.75
2022-11-27T10:18:21.592Z,101986.78
2022-11-27T10:20:56.534Z,101983.88
2022-11-27T10:23:43.040Z,101985.78
2022-11-27T10:26:25.026Z,101973.91
2022-11-27T10:29:10.293Z,101978.34
2022-11-27T10:31:51.971Z,101973.16
2022-11-27T10:34:30.748Z,101966.47
2022-11-27T10:37:01.209Z,101965.53
2022-11-27T10:39:41.386Z,101964.81
2022-11-27T10:42:17.454Z,101957.56
2022-11-27T10:45:06.257Z,101931.69
2022-11-27T10:47:34.199Z,101943.19
2022-11-27T10:50:01.610Z,101939.69
2022-11-27T10:52:28.261Z,101945.88
2022-11-27T10:55:01.908Z,101939.09
2022-11-27T10:57:53.404Z,101936.44
2022-11-27T11:00:23.134Z,101924.78
2022-11-27T11:03:00.165Z,101923.94
2022-11-27T11:05:44.983Z,101922.44
2022-11-27T11:08:18.854Z,101924.16
2022-11-27T11:10:54.577Z,101914.06
2022-11-27T11:13:29.352Z,101921.66
2022-11-27T11:15:59.460Z,101907.16
2022-11-27T11:18:32.331Z,101913.19
2022-11-27T11:21:01.653Z,101900.47
2022-11-27T11:23:33.006Z,101900.47
2022-11-27T11:26:13.330Z,101904.00
2022-11-27T11:28:54.524Z,101888.59
2022-11-27T11:31:28.400Z,101883.66
2022-11-27T11:34:01.718Z,101868.34
2022-11-27T11:36:28.707Z,101856.50
2022-11-27T11:38:55.872Z,101857.75
2022-11-27T11:41:24.160Z,101854.53
2022-11-27T11:44:22.780Z,101866.84
2022-11-27T11:46:56.064Z,101859.25
2022-11-27T11:49:26.449Z,101856.00
2022-11-27T11:52:21.137Z,101844.81
2022-11-27T11:55:16.631Z,101844.88
2022-11-27T11:57:58.737Z,101856.16
2022-11-27T12:00:48.717Z,101850.09
2022-11-27T12:03:43.433Z,101847.59
2022-11-27T12:06:48.924Z,101845.03
2022-11-27T12:09:22.008Z,101838.22
2022-11-27T12:11:57.836Z,101832.13
2022-11-27T12:14:36.111Z,101837.34
2022-11-27T12:17:47.384Z,101822.06
2022-11-27T12:20:24.647Z,101813.56
2022-11-27T12:23:22.262Z,101804.22
2022-11-27T12:26:11.543Z,101787.84
2022-11-27T12:28:39.032Z,101778.63
2022-11-27T12:31:23.638Z,101772.63
2022-11-27T12:34:07.425Z,101754.78
2022-11-27T12:36:46.084Z,101760.13
2022-11-27T12:39:25.894Z,101761.66
2022-11-27T12:42:26.996Z,101766.09
2022-11-27T12:45:00.593Z,101754.56
2022-11-27T12:47:40.018Z,101750.06
2022-11-27T12:50:30.234Z,101755.38
2022-11-27T12:53:03.378Z,101751.06
2022-11-27T12:55:33.582Z,101752.63
2022-11-27T12:58:24.612Z,101743.22
2022-11-27T13:00:57.934Z,101737.22
2022-11-27T13:03:59.982Z,101743.38
2022-11-27T13:06:31.380Z,101743.38
2022-11-27T13:09:01.405Z,101729.72
2022-11-27T13:11:37.146Z,101731.50
2022-11-27T13:14:11.659Z,101731.50
2022-11-27T13:16:48.965Z,101722.78
2022-11-27T13:19:43.060Z,101734.84
2022-11-27T13:22:14.271Z,101713.47
2022-11-27T13:24:41.150Z,101718.75
2022-11-27T13:27:17.096Z,101710.19
2022-11-27T13:29:50.061Z,101706.53
2022-11-27T13:32:26.880Z,101717.81
2022-11-27T13:34:56.802Z,101709.97
2022-11-27T13:37:38.173Z,101711.75
2022-11-27T13:40:27.278Z,101704.97
2022-11-27T13:42:56.917Z,101697.28
2022-11-27T13:45:28.276Z,101696.44
2022-11-27T13:47:57.371Z,101691.47
2022-11-27T13:50:28.297Z,101694.97
2022-11-27T13:53:04.399Z,101684.34
2022-11-27T13:55:36.188Z,101684.50
2022-11-27T13:58:04.280Z,101675.28
2022-11-27T14:00:39.364Z,101666.44
2022-11-27T14:03:06.878Z,101675.88
2022-11-27T14:05:37.495Z,101662.13
2022-11-27T14:08:04.371Z,101663.88
2022-11-27T14:10:33.158Z,101660.44
2022-11-27T14:13:07.407Z,101659.69
2022-11-27T14:15:36.128Z,101659.53
2022-11-27T14:18:08.682Z,101655.16
2022-11-27T14:20:45.509Z,101647.50
2022-11-27T14:23:13.460Z,101641.41
2022-11-27T14:25:40.677Z,101642.13
2022-11-27T14:28:15.230Z,101643.13
2022-11-27T14:30:50.389Z,101648.97
2022-11-27T14:33:28.732Z,101642.13
2022-11-27T14:36:07.583Z,101644.84
2022-11-27T14:38:35.404Z,101633.03
2022-11-27T14:41:25.877Z,101624.38
2022-11-27T14:44:03.051Z,101617.63
2022-11-27T14:46:32.857Z,101621.81
2022-11-27T14:48:59.522Z,101620.91
2022-11-27T14:51:35.715Z,101609.72
2022-11-27T14:54:27.898Z,101613.00
2022-11-27T14:56:55.976Z,101606.88
2022-11-27T14:59:24.527Z,101605.78
2022-11-27T15:02:02.506Z,101618.97
2022-11-27T15:04:35.062Z,101615.41
2022-11-27T15:07:05.743Z,101610.13
2022-11-27T15:09:35.518Z,101595.22
2022-11-27T15:12:16.907Z,101612.63
2022-11-27T15:15:09.085Z,101614.22
2022-11-27T15:17:39.257Z,101606.47
2022-11-27T15:20:17.172Z,101602.22
2022-11-27T15:22:51.621Z,101599.41
2022-11-27T15:25:41.435Z,101596.00
2022-11-27T15:28:41.874Z,101588.41
2022-11-27T15:31:38.266Z,101581.69
2022-11-27T15:34:06.231Z,101568.72
2022-11-27T15:36:43.283Z,101570.28
2022-11-27T15:39:20.919Z,101548.69
2022-11-27T15:41:52.934Z,101559.75
2022-11-27T15:44:20.034Z,101560.63
2022-11-27T15:46:47.797Z,101554.47
2022-11-27T15:49:15.373Z,101562.22
2022-11-27T15:51:42.848Z,101557.72
2022-11-27T15:54:09.454Z,101564.63
2022-11-27T15:56:36.500Z,101554.38
2022-11-27T15:59:03.245Z,101557.72
2022-11-27T16:01:29.954Z,101562.00
2022-11-27T16:03:56.540Z,101559.31
2022-11-27T16:06:25.952Z,101557.72
2022-11-27T16:09:01.119Z,101557.84
2022-11-27T16:11:29.826Z,101553.53
2022-11-27T16:13:57.290Z,101547.44
2022-11-27T16:16:24.693Z,101541.50
2022-11-27T16:18:51.305Z,101533.81
2022-11-27T16:21:18.489Z,101531.91
2022-11-27T16:23:45.575Z,101522.59
2022-11-27T16:26:14.269Z,101517.56
2022-11-27T16:28:41.240Z,101517.44
2022-11-27T16:31:11.530Z,101508.94
2022-11-27T16:33:38.101Z,101501.19
2022-11-27T16:36:07.088Z,101488.38
2022-11-27T16:38:33.946Z,101483.25
2022-11-27T16:41:01.957Z,101492.19
2022-11-27T16:43:31.546Z,101487.03
2022-11-27T16:46:12.511Z,101486.09
2022-11-27T16:48:41.126Z,101475.72
2022-11-27T16:51:23.217Z,101475.81
2022-11-27T16:53:52.063Z,101475.09
2022-11-27T16:56:20.989Z,101471.66
2022-11-27T16:58:47.768Z,101467.31
2022-11-27T17:01:20.323Z,101466.38
2022-11-27T17:03:49.840Z,101464.75
2022-11-27T17:06:22.252Z,101459.66
2022-11-27T17:08:50.465Z,101460.34
2022-11-27T17:11:21.145Z,101454.44
2022-11-27T17:13:49.033Z,101452.75
2022-11-27T17:16:16.044Z,101446.59
2022-11-27T17:18:43.542Z,101452.66
2022-11-27T17:21:21.291Z,101462.06
2022-11-27T17:23:48.385Z,101454.28
2022-11-27T17:26:18.184Z,101459.38
2022-11-27T17:28:45.683Z,101453.38
2022-11-27T17:31:21.575Z,101452.50
2022-11-27T17:33:48.238Z,101443.03
2022-11-27T17:36:15.426Z,101439.50
2022-11-27T17:38:42.104Z,101441.22
2022-11-27T17:41:14.994Z,101442.81
2022-11-27T17:43:42.014Z,101429.19
2022-11-27T17:46:11.392Z,101422.31
2022-11-27T17:48:38.408Z,101410.13
2022-11-27T17:51:06.422Z,101409.47
2022-11-27T17:53:33.210Z,101402.56
2022-11-27T17:56:08.130Z,101385.16
2022-11-27T17:58:35.252Z,101394.72
2022-11-27T18:01:01.983Z,101402.44
2022-11-27T18:03:29.972Z,101405.94
2022-11-27T18:05:57.005Z,101399.16
2022-11-27T18:08:24.204Z,101389.75
2022-11-27T18:10:51.300Z,101398.31
2022-11-27T18:13:17.810Z,101381.88
2022-11-27T18:15:44.370Z,101375.66
2022-11-27T18:18:10.995Z,101371.69
2022-11-27T18:20:37.588Z,101365.56
2022-11-27T18:23:04.436Z,101359.59
2022-11-27T18:25:31.712Z,101363.81
2022-11-27T18:27:58.765Z,101364.72
2022-11-27T18:30:26.493Z,101361.22
2022-11-27T18:32:53.067Z,101357.75
2022-11-27T18:35:20.065Z,101354.34
2022-11-27T18:37:47.062Z,101356.88
2022-11-27T18:40:13.886Z,101348.44
2022-11-27T18:42:40.909Z,101338.03
2022-11-27T18:45:25.373Z,101340.63
2022-11-27T18:47:55.956Z,101332.00
2022-11-27T18:50:28.245Z,101340.69
2022-11-27T18:52:56.493Z,101339.69
2022-11-27T18:55:23.094Z,101334.69
2022-11-27T18:57:49.683Z,101319.22
2022-11-27T19:00:17.374Z,101320.88
2022-11-27T19:02:44.529Z,101325.09
2022-11-27T19:05:11.196Z,101327.81
2022-11-27T19:07:37.810Z,101326.91
2022-11-27T19:10:05.057Z,101332.00
2022-11-27T19:12:31.613Z,101327.81
2022-11-27T19:14:58.114Z,101318.22
2022-11-27T19:17:29.325Z,101312.28
2022-11-27T19:19:58.579Z,101312.31
2022-11-27T19:22:25.218Z,101307.03
2022-11-27T19:24:51.794Z,101312.31
2022-11-27T19:27:18.522Z,101309.66
2022-11-27T19:29:45.557Z,101298.63
2022-11-27T19:32:12.171Z,101293.47
2022-11-27T19:34:39.448Z,101302.13
2022-11-27T19:37:06.165Z,101298.59
2022-11-27T19:39:32.728Z,101288.25
2022-11-27T19:41:59.910Z,101299.63
2022-11-27T19:44:26.961Z,101296.09
2022-11-27T19:46:53.782Z,101276.28
2022-11-27T19:49:21.408Z,101267.78
2022-11-27T19:51:48.789Z,101268.63
2022-11-27T19:54:16.954Z,101265.16
2022-11-27T19:56:43.601Z,101265.28
2022-11-27T19:59:12.254Z,101260.03
2022-11-27T20:01:40.330Z,101265.22
2022-11-27T20:04:09.558Z,101260.88
2022-11-27T20:06:36.144Z,101256.53
2022-11-27T20:09:05.406Z,101258.44
2022-11-27T20:11:34.874Z,101248.06
2022-11-27T20:14:04.275Z,101258.44
2022-11-27T20:16:32.539Z,101232.41
2022-11-27T20:18:59.314Z,101231.72
2022-11-27T20:21:27.273Z,101235.31
2022-11-27T20:23:55.127Z,101232.69
2022-11-27T20:26:24.220Z,101230.06
2022-11-27T20:28:51.766Z,101233.50
2022-11-27T20:31:30.992Z,101222.38
2022-11-27T20:34:01.468Z,101214.84
2022-11-27T20:36:30.148Z,101213.81
2022-11-27T20:38:59.643Z,101217.41
2022-11-27T20:41:27.242Z,101210.59
2022-11-27T20:43:56.129Z,101213.16
2022-11-27T20:46:23.145Z,101201.97
2022-11-27T20:48:51.282Z,101201.97
2022-11-27T20:51:21.859Z,101194.22
2022-11-27T20:53:49.454Z,101187.41
2022-11-27T20:56:18.733Z,101183.91
2022-11-27T20:58:46.458Z,101173.63
2022-11-27T21:01:22.912Z,101177.94
2022-11-27T21:03:51.813Z,101169.38
2022-11-27T21:06:20.246Z,101171.19
2022-11-27T21:08:47.440Z,101158.38
2022-11-27T21:11:18.305Z,101154.75
2022-11-27T21:13:45.005Z,101153.97
2022-11-27T21:16:13.921Z,101158.19
2022-11-27T21:18:40.860Z,101155.66
2022-11-27T21:21:12.575Z,101160.00
2022-11-27T21:23:40.540Z,101157.41
2022-11-27T21:26:08.484Z,101140.94
2022-11-27T21:28:35.233Z,101150.44
2022-11-27T21:31:07.414Z,101155.69
2022-11-27T21:33:35.184Z,101139.28
2022-11-27T21:36:01.968Z,101148.94
2022-11-27T21:38:28.588Z,101149.78
2022-11-27T21:40:55.510Z,101136.84
2022-11-27T21:43:22.576Z,101136.88
2022-11-27T21:45:49.216Z,101132.66
2022-11-27T21:48:15.749Z,101131.94
2022-11-27T21:50:42.466Z,101136.09
2022-11-27T21:53:09.124Z,101123.16
2022-11-27T21:55:40.543Z,101120.66
2022-11-27T21:58:07.121Z,101118.94
2022-11-27T22:00:33.746Z,101120.69
2022-11-27T22:03:00.237Z,101118.13
2022-11-27T22:05:27.600Z,101110.31
2022-11-27T22:07:54.208Z,101098.44
2022-11-27T22:10:21.405Z,101094.13
2022-11-27T22:12:49.124Z,101086.50
2022-11-27T22:15:16.253Z,101089.88
2022-11-27T22:17:43.257Z,101096.63
2022-11-27T22:20:10.668Z,101087.41
2022-11-27T22:22:37.667Z,101091.66
2022-11-27T22:25:05.438Z,101086.59
2022-11-27T22:27:31.945Z,101078.91
2022-11-27T22:29:58.527Z,101070.31
2022-11-27T22:32:25.568Z,101073.06
2022-11-27T22:34:52.630Z,101063.66
2022-11-27T22:37:19.282Z,101063.66
2022-11-27T22:39:46.393Z,101053.31
2022-11-27T22:42:12.968Z,101061.03
2022-11-27T22:44:39.622Z,101055.13
2022-11-27T22:47:06.342Z,101041.50
2022-11-27T22:49:32.831Z,101032.22
2022-11-27T22:51:59.385Z,101043.31
2022-11-27T22:54:26.386Z,101037.38
2022-11-27T22:56:52.906Z,101038.19
2022-11-27T22:59:35.062Z,101028.66
2022-11-27T23:02:02.782Z,101023.69
2022-11-27T23:04:29.390Z,101022.88
2022-11-27T23:06:55.965Z,101015.94
2022-11-27T23:09:23.060Z,101016.81
2022-11-27T23:11:49.711Z,101010.81
2022-11-27T23:14:16.451Z,101016.00
2022-11-27T23:16:43.198Z,101020.38
2022-11-27T23:19:10.972Z,101017.72
2022-11-27T23:21:38.742Z,101022.84
2022-11-27T23:24:06.834Z,101011.72
2022-11-27T23:26:34.147Z,101017.81
2022-11-27T23:29:01.369Z,101009.16
2022-11-27T23:31:32.473Z,101009.22
2022-11-27T23:34:03.527Z,101005.78
2022-11-27T23:36:31.411Z,100998.94
2022-11-27T23:39:02.922Z,101005.00
2022-11-27T23:41:29.992Z,100993.88
2022-11-27T23:43:57.322Z,100992.22
2022-11-27T23:46:26.351Z,100991.31
2022-11-27T23:48:57.576Z,100990.50
2022-11-27T23:51:27.097Z,100988.81
2022-11-27T23:53:54.500Z,100987.16
2022-11-27T23:56:29.226Z,100982.00
2022-11-27T23:58:57.379Z,100982.13
